Time;durP1;ratioP1;P1;durP2;ratioP2;P2;SDS_P1;SDS_P2;PMS_P1;PMS_P2;Temp;Humidity;BMP_temperature;BMP_pressure;BME280_temperature;BME280_humidity;BME280_pressure;Samples;Min_cycle;Max_cycle;Signal;HPM_P1;HPM_P2
2022/05/13 00:01:29;;;;;;;9.43;6.00;;;;;;;17.55;51.93;101422.66;5026893;28;20461;-85
2022/05/13 00:03:54;;;;;;;6.65;5.85;;;;;;;17.44;52.56;101421.56;4993886;28;20557;-85
2022/05/13 00:06:20;;;;;;;7.57;6.18;;;;;;;17.57;51.75;101426.84;5026482;28;20041;-85
2022/05/13 00:08:46;;;;;;;7.47;6.22;;;;;;;17.55;51.53;101420.03;4993609;28;20499;-85
2022/05/13 00:11:11;;;;;;;8.82;6.50;;;;;;;17.42;52.07;101409.53;5010174;28;20061;-85
2022/05/13 00:13:37;;;;;;;7.53;6.03;;;;;;;17.40;52.38;101416.63;5010215;28;20037;-85
2022/05/13 00:16:04;;;;;;;7.03;6.00;;;;;;;17.35;52.56;101418.72;5010254;28;20133;-86
2022/05/13 00:18:29;;;;;;;7.60;6.35;;;;;;;17.34;52.25;101414.44;5009742;28;20030;-86
2022/05/13 00:20:55;;;;;;;7.68;6.15;;;;;;;17.51;51.97;101415.97;5009848;28;20040;-85
2022/05/13 00:23:20;;;;;;;6.55;5.72;;;;;;;17.42;51.97;101407.75;5026096;28;20034;-85
2022/05/13 00:25:46;;;;;;;8.05;6.10;;;;;;;17.33;52.06;101397.91;5010094;28;20025;-85
2022/05/13 00:28:13;;;;;;;8.70;6.43;;;;;;;17.20;52.75;101394.38;5009730;28;20022;-85
2022/05/13 00:30:40;;;;;;;7.72;6.50;;;;;;;17.33;52.81;101400.50;5009969;28;20045;-85
2022/05/13 00:33:06;;;;;;;11.27;6.40;;;;;;;17.28;53.30;101399.97;5009808;28;20029;-85
2022/05/13 00:35:32;;;;;;;7.95;6.13;;;;;;;17.34;52.69;101404.81;5009833;28;20022;-86
2022/05/13 00:37:58;;;;;;;8.70;6.28;;;;;;;17.22;52.59;101381.22;5009301;28;20029;-85
2022/05/13 00:40:23;;;;;;;7.90;6.35;;;;;;;17.35;52.54;101409.09;4993284;28;20057;-85
2022/05/13 00:42:49;;;;;;;6.82;6.13;;;;;;;17.40;52.66;101424.47;5013913;28;20507;-85
2022/05/13 00:45:16;;;;;;;9.10;6.15;;;;;;;17.27;53.05;101403.50;5016068;28;20032;-85
2022/05/13 00:47:42;;;;;;;11.05;6.72;;;;;;;17.29;53.08;101429.56;5016283;28;20120;-85
2022/05/13 00:50:08;;;;;;;10.02;6.47;;;;;;;17.23;52.98;101416.91;5016365;28;20823;-85
2022/05/13 00:52:33;;;;;;;9.77;6.28;;;;;;;17.15;52.71;101407.75;5015723;28;20052;-85
2022/05/13 00:55:01;;;;;;;7.00;6.30;;;;;;;17.13;52.73;101412.25;5032811;28;20463;-85
2022/05/13 00:57:26;;;;;;;7.75;6.28;;;;;;;17.09;52.47;101417.75;5015943;28;20036;-85
2022/05/13 00:59:53;;;;;;;8.25;6.30;;;;;;;16.92;52.93;101422.31;5016163;28;20030;-85
2022/05/13 01:02:18;;;;;;;7.10;6.03;;;;;;;16.83;52.07;101406.34;5017671;28;20042;-85
2022/05/13 01:04:44;;;;;;;7.18;6.07;;;;;;;16.83;52.18;101412.41;5015914;28;20490;-86
2022/05/13 01:07:13;;;;;;;7.88;6.40;;;;;;;16.79;51.73;101416.16;5015879;28;20022;-85
2022/05/13 01:09:42;;;;;;;7.00;5.97;;;;;;;16.71;51.74;101407.94;5015609;28;20069;-85
2022/05/13 01:12:10;;;;;;;7.25;5.90;;;;;;;16.91;51.21;101414.53;5032422;28;20064;-85
2022/05/13 01:14:39;;;;;;;6.63;5.75;;;;;;;16.78;50.98;101387.50;4999613;28;20029;-85
2022/05/13 01:20:04;;;;;;;7.45;5.38;;;;;;;17.07;50.02;101402.19;5016610;28;20089;-85
2022/05/13 01:22:30;;;;;;;7.07;5.80;;;;;;;17.18;49.60;101409.34;4999559;28;20026;-85
2022/05/13 01:24:56;;;;;;;8.05;5.65;;;;;;;17.12;49.45;101401.91;4999752;28;20724;-85
2022/05/13 01:27:21;;;;;;;7.90;5.50;;;;;;;17.19;49.87;101403.16;5017219;28;20098;-86
2022/05/13 01:29:48;;;;;;;7.93;5.75;;;;;;;17.16;49.73;101398.13;5032520;28;20100;-85
2022/05/13 01:32:14;;;;;;;7.05;5.35;;;;;;;17.14;50.12;101400.03;5031897;28;20030;-85
2022/05/13 01:34:40;;;;;;;7.68;6.00;;;;;;;17.10;49.74;101385.44;5015318;28;20040;-85
2022/05/13 01:37:06;;;;;;;9.10;5.80;;;;;;;17.20;49.63;101394.38;5032569;28;20116;-85
2022/05/13 01:39:31;;;;;;;8.23;5.88;;;;;;;17.26;49.69;101394.00;4999178;28;20103;-85
2022/05/13 01:41:56;;;;;;;9.48;6.03;;;;;;;17.22;49.72;101403.00;4999479;28;20037;-85
2022/05/13 01:44:22;;;;;;;10.98;6.20;;;;;;;17.06;50.10;101379.59;5015715;28;20030;-85
2022/05/13 01:46:47;;;;;;;10.35;6.38;;;;;;;16.86;50.68;101378.25;5015840;28;20029;-85
2022/05/13 01:49:13;;;;;;;8.15;6.57;;;;;;;16.87;50.76;101392.16;5031947;28;20034;-85
2022/05/13 01:51:38;;;;;;;8.15;6.22;;;;;;;16.79;51.05;101374.34;5015750;28;20026;-85
2022/05/13 01:54:04;;;;;;;8.70;6.15;;;;;;;16.85;50.71;101389.63;5013837;28;20030;-85
2022/05/13 01:56:30;;;;;;;8.38;5.75;;;;;;;16.90;49.96;101400.63;5012552;28;20517;-85
2022/05/13 01:58:55;;;;;;;7.57;5.72;;;;;;;16.93;50.15;101397.00;5012282;28;20030;-86
2022/05/13 02:01:21;;;;;;;8.23;6.00;;;;;;;16.77;49.90;101370.97;5029026;28;20080;-85
2022/05/13 02:03:46;;;;;;;6.57;5.85;;;;;;;16.82;50.27;101394.22;5012225;28;20041;-85
2022/05/13 02:06:21;;;;;;;10.35;5.90;;;;;;;16.76;49.91;101392.81;5012212;28;20392;-85
2022/05/13 02:08:47;;;;;;;7.03;6.00;;;;;;;16.83;50.00;101395.91;5012446;28;20026;-85
2022/05/13 02:11:13;;;;;;;6.65;5.78;;;;;;;16.56;50.10;101374.91;5012438;28;20034;-85
2022/05/13 02:13:40;;;;;;;7.28;5.97;;;;;;;16.68;50.28;101402.91;5012368;28;20414;-85
2022/05/13 02:16:05;;;;;;;7.85;6.18;;;;;;;16.66;50.41;101388.25;5012361;28;20034;-85
2022/05/13 02:18:31;;;;;;;7.85;5.88;;;;;;;16.72;50.63;101408.81;5028374;28;20029;-85
2022/05/13 02:20:56;;;;;;;8.60;6.00;;;;;;;16.62;50.94;101403.28;4995801;28;20030;-85
2022/05/13 02:23:22;;;;;;;9.15;5.55;;;;;;;16.42;51.07;101387.97;5013079;28;20536;-85
2022/05/13 02:25:51;;;;;;;8.38;5.97;;;;;;;16.44;50.94;101400.03;4995808;28;20036;-85
2022/05/13 02:28:17;;;;;;;7.38;5.97;;;;;;;16.39;51.19;101398.59;5011975;28;20550;-85
2022/05/13 02:30:43;;;;;;;7.90;6.03;;;;;;;16.30;51.26;101394.78;5012212;28;20046;-86
2022/05/13 02:33:08;;;;;;;8.48;6.22;;;;;;;16.39;51.44;101406.44;5011682;28;20084;-85
2022/05/13 02:35:34;;;;;;;9.57;6.85;;;;;;;16.42;51.29;101401.88;5011917;28;20026;-85
2022/05/13 02:37:59;;;;;;;9.20;6.82;;;;;;;16.38;51.42;101389.09;5011731;28;20068;-85
2022/05/13 02:41:11;;;;;;;11.07;6.22;;;;;;;16.35;51.44;101406.63;4995116;28;20108;-85
2022/05/13 02:43:12;;;;;;;8.27;6.57;;;;;;;16.43;51.45;101418.41;5011518;28;20030;-85
2022/05/13 02:45:38;;;;;;;8.98;6.55;;;;;;;16.40;51.77;101410.72;5011569;28;20030;-86
2022/05/13 02:48:04;;;;;;;8.18;6.55;;;;;;;16.43;51.67;101405.34;5011085;28;20030;-86
2022/05/13 02:50:29;;;;;;;11.30;6.38;;;;;;;16.45;51.83;101411.31;5028201;28;20044;-87
2022/05/13 02:52:55;;;;;;;8.73;6.22;;;;;;;16.49;52.88;101415.41;5011801;28;20080;-85
2022/05/13 02:55:21;;;;;;;8.15;6.40;;;;;;;16.59;52.75;101403.44;5011574;28;20029;-84
2022/05/13 02:57:46;;;;;;;7.40;5.97;;;;;;;16.93;53.16;101402.22;5011259;28;20037;-82
2022/05/13 03:00:12;;;;;;;7.10;5.85;;;;;;;16.98;52.87;101399.31;5011399;28;20036;-82
2022/05/13 03:02:38;;;;;;;8.02;6.20;;;;;;;17.23;51.31;101432.59;5010781;28;20030;-82
2022/05/13 03:05:04;;;;;;;8.48;6.53;;;;;;;17.53;49.89;101421.91;4994428;28;20175;-82
2022/05/13 03:07:29;;;;;;;7.78;6.30;;;;;;;17.53;50.39;101421.91;5011239;28;20120;-82
2022/05/13 03:09:55;;;;;;;7.75;6.38;;;;;;;17.43;49.64;101432.97;5012456;28;20084;-82
2022/05/13 03:12:20;;;;;;;10.52;6.70;;;;;;;17.36;49.76;101430.84;5011230;28;20407;-82
2022/05/13 03:14:46;;;;;;;8.70;6.60;;;;;;;17.23;49.80;101412.50;4994828;28;20403;-82
2022/05/13 03:17:11;;;;;;;7.65;6.38;;;;;;;17.11;49.90;101429.00;5010915;28;20383;-82
2022/05/13 03:19:37;;;;;;;10.23;6.68;;;;;;;17.03;50.73;101405.09;4994633;28;20088;-82
2022/05/13 03:22:03;;;;;;;9.88;6.32;;;;;;;17.48;49.76;101433.50;5010980;28;20028;-82
2022/05/13 03:24:29;;;;;;;11.38;6.25;;;;;;;17.73;49.03;101421.47;5011229;28;20034;-82
2022/05/13 03:26:54;;;;;;;36.65;8.23;;;;;;;17.80;48.82;101434.97;4994633;28;20026;-82
2022/05/13 03:29:20;;;;;;;15.38;6.47;;;;;;;17.71;48.69;101416.34;5008754;28;20112;-86
2022/05/13 03:31:46;;;;;;;9.05;6.40;;;;;;;17.49;47.98;101409.03;4977764;28;20482;-85
2022/05/13 03:34:11;;;;;;;9.20;6.18;;;;;;;17.54;48.67;101434.06;5010643;28;20030;-87
2022/05/13 03:36:37;;;;;;;12.48;5.95;;;;;;;17.45;49.00;101433.72;4993824;28;20116;-87
2022/05/13 03:39:03;;;;;;;7.38;6.13;;;;;;;17.55;48.40;101435.72;4994141;28;20077;-87
2022/05/13 03:41:28;;;;;;;9.20;6.10;;;;;;;17.81;47.94;101432.28;4994047;28;20041;-87
2022/05/13 03:43:53;;;;;;;6.88;6.18;;;;;;;17.77;47.71;101442.09;5010534;28;20446;-86
2022/05/13 03:46:19;;;;;;;12.90;6.47;;;;;;;17.67;48.10;101441.00;4977617;28;20029;-87
2022/05/13 03:48:44;;;;;;;10.15;6.60;;;;;;;17.57;48.13;101455.63;5010083;28;20044;-85
2022/05/13 03:51:10;;;;;;;6.90;6.10;;;;;;;17.67;48.35;101445.38;4993881;28;20454;-85
2022/05/13 03:53:35;;;;;;;9.27;6.00;;;;;;;17.93;47.09;101446.31;4977619;28;20515;-86
2022/05/13 03:56:01;;;;;;;8.77;5.90;;;;;;;17.98;47.19;101452.91;4993649;28;20030;-86
2022/05/13 03:58:26;;;;;;;8.43;6.30;;;;;;;17.83;47.51;101451.34;5007712;28;20038;-86
2022/05/13 04:00:52;;;;;;;7.50;5.75;;;;;;;17.93;48.05;101451.56;5008582;28;20475;-86
2022/05/13 04:03:19;;;;;;;6.85;5.85;;;;;;;17.88;48.04;101459.69;4976929;28;20030;-85
2022/05/13 04:11:13;;;;;;;7.82;5.90;;;;;;;17.45;48.16;101446.78;4996042;28;20483;-85
2022/05/13 04:16:22;;;;;;;9.13;6.30;;;;;;;17.24;48.70;101474.31;4995038;28;20064;-85
2022/05/13 04:18:49;;;;;;;9.27;6.20;;;;;;;17.14;49.21;101460.16;4993120;28;20030;-89
2022/05/13 04:21:20;;;;;;;7.80;5.85;;;;;;;17.05;50.10;101445.88;4993041;28;20083;-83
2022/05/13 04:23:47;;;;;;;8.45;6.47;;;;;;;17.24;50.33;101478.72;4993515;28;20469;-85
2022/05/13 04:26:13;;;;;;;11.48;8.00;;;;;;;17.33;51.00;101481.59;4993461;28;20570;-84
2022/05/13 04:28:44;;;;;;;10.20;6.38;;;;;;;17.32;50.03;101473.84;4992313;28;20045;-91
2022/05/13 04:31:10;;;;;;;10.98;6.30;;;;;;;17.33;50.30;101478.97;4972845;28;20035;-92
2022/05/13 04:33:44;;;;;;;8.65;6.80;;;;;;;17.22;50.46;101476.19;4959034;28;20486;-93
2022/05/13 04:36:10;;;;;;;9.05;6.88;;;;;;;17.28;50.39;101480.19;4974825;28;20046;-87
2022/05/13 04:38:36;;;;;;;12.90;7.05;;;;;;;17.28;49.98;101473.19;4958288;28;20097;-88
2022/05/13 04:42:49;;;;;;;12.43;6.93;;;;;;;17.30;49.96;101468.69;4974187;28;20052;-88
2022/05/13 04:43:47;;;;;;;10.27;7.55;;;;;;;17.35;50.19;101484.09;4993336;28;20040;-90
2022/05/13 04:46:12;;;;;;;13.15;9.07;;;;;;;17.46;49.93;101473.78;5011197;28;20062;-90
2022/05/13 04:48:38;;;;;;;18.75;11.48;;;;;;;17.48;49.56;101467.50;5009349;28;20088;-92
2022/05/13 04:51:03;;;;;;;16.25;7.78;;;;;;;17.52;49.49;101470.78;4975792;28;20068;-86
2022/05/13 04:53:30;;;;;;;14.15;9.18;;;;;;;17.39;50.05;101455.03;5007704;28;20049;-84
2022/05/13 04:55:56;;;;;;;12.90;8.80;;;;;;;17.57;50.74;101473.09;4990991;28;20034;-85
2022/05/13 04:58:22;;;;;;;11.48;8.90;;;;;;;17.59;51.05;101465.97;4988809;28;20030;-84
2022/05/13 05:00:48;;;;;;;15.43;8.32;;;;;;;17.59;50.62;101473.81;5009257;28;20034;-86
2022/05/13 05:03:15;;;;;;;14.35;9.38;;;;;;;17.66;51.01;101480.34;4987197;28;20034;-86
2022/05/13 05:05:43;;;;;;;14.00;8.90;;;;;;;17.64;50.31;101459.53;5005980;28;20058;-87
2022/05/13 05:08:11;;;;;;;12.73;8.35;;;;;;;17.77;50.43;101465.66;5008500;28;20471;-92
2022/05/13 05:10:37;;;;;;;11.27;7.80;;;;;;;17.90;49.60;101473.56;4979632;28;20305;-92
2022/05/13 05:13:03;;;;;;;14.45;8.18;;;;;;;17.95;49.56;101476.69;5010755;28;20099;-87
2022/05/13 05:15:28;;;;;;;12.10;7.05;;;;;;;18.67;47.10;101484.09;4992505;28;20554;-93
2022/05/13 05:17:55;;;;;;;14.25;7.53;;;;;;;19.00;46.40;101487.00;5010969;28;20494;-92
2022/05/13 05:20:20;;;;;;;11.90;7.10;;;;;;;19.09;46.41;101490.75;5012588;28;20384;-92
2022/05/13 05:22:46;;;;;;;13.45;7.28;;;;;;;19.67;47.81;101484.78;5025599;28;20036;-90
2022/05/13 05:25:13;;;;;;;12.30;6.93;;;;;;;20.02;45.79;101476.06;5008651;28;20026;-81
2022/05/13 05:27:39;;;;;;;10.30;7.28;;;;;;;20.24;45.40;101480.53;5008465;28;20462;-88
2022/05/13 05:30:05;;;;;;;10.38;6.93;;;;;;;20.44;46.04;101497.44;5012025;28;20034;-89
2022/05/13 05:32:30;;;;;;;12.57;7.10;;;;;;;20.81;45.04;101495.44;4996553;28;20488;-87
2022/05/13 05:34:56;;;;;;;10.98;7.40;;;;;;;20.79;44.52;101479.78;4993365;28;20040;-92
2022/05/13 05:37:21;;;;;;;11.10;7.93;;;;;;;21.00;44.64;101492.19;4979368;28;20022;-85
2022/05/13 05:39:47;;;;;;;12.50;7.40;;;;;;;21.08;44.89;101498.53;4995676;28;20053;-91
2022/05/13 05:42:13;;;;;;;12.40;6.95;;;;;;;21.42;43.03;101480.88;4993824;28;20722;-94
2022/05/13 05:44:38;;;;;;;10.27;7.43;;;;;;;21.21;43.85;101472.06;4998397;28;20029;-91
2022/05/13 05:47:05;;;;;;;12.35;7.45;;;;;;;21.35;43.83;101455.19;5013649;28;20030;-94
2022/05/13 05:49:31;;;;;;;9.02;7.05;;;;;;;21.44;43.32;101475.53;5029446;28;20036;-87
2022/05/13 05:51:56;;;;;;;11.95;7.47;;;;;;;21.52;42.32;101485.41;5012010;28;20133;-90
2022/05/13 05:57:15;;;;;;;10.25;7.05;;;;;;;21.51;43.83;101492.47;5023389;28;20513;-82
2022/05/13 05:59:42;;;;;;;14.65;8.27;;;;;;;21.39;43.41;101473.25;5010982;28;20068;-81
2022/05/13 06:02:07;;;;;;;9.50;7.72;;;;;;;21.51;43.27;101483.72;4996026;28;20036;-92
2022/05/13 06:04:33;;;;;;;15.00;10.18;;;;;;;21.78;42.73;101492.00;5027439;28;20391;-80
2022/05/13 06:06:59;;;;;;;19.75;13.30;;;;;;;21.76;42.15;101486.03;5010321;28;20061;-82
2022/05/13 06:09:24;;;;;;;14.57;10.13;;;;;;;21.87;43.79;101501.78;4978212;28;20037;-80
2022/05/13 06:11:50;;;;;;;14.55;9.38;;;;;;;21.74;43.96;101495.88;4994264;28;20406;-80
2022/05/13 06:14:15;;;;;;;17.23;9.00;;;;;;;21.41;45.15;101488.91;5010838;28;20022;-85
2022/05/13 06:16:41;;;;;;;14.15;8.88;;;;;;;21.01;45.77;101489.44;4994170;28;20469;-88
2022/05/13 06:19:07;;;;;;;13.82;9.57;;;;;;;21.12;45.59;101493.84;4993087;28;20038;-86
2022/05/13 06:21:33;;;;;;;12.27;8.48;;;;;;;21.17;45.45;101481.16;5010806;28;20483;-86
2022/05/13 06:23:59;;;;;;;12.80;8.27;;;;;;;21.40;45.07;101484.59;5010702;28;20030;-82
2022/05/13 06:26:25;;;;;;;10.88;8.27;;;;;;;21.32;45.53;101484.38;5009936;28;20490;-85
2022/05/13 06:28:51;;;;;;;19.45;9.00;;;;;;;21.28;45.11;101493.50;5010051;28;20549;-84
2022/05/13 06:31:18;;;;;;;11.82;7.90;;;;;;;21.41;44.52;101500.28;4991696;28;20519;-87
2022/05/13 06:33:44;;;;;;;11.70;8.75;;;;;;;21.52;44.56;101488.88;4975504;28;20105;-87
2022/05/13 06:36:11;;;;;;;12.90;8.40;;;;;;;21.33;44.13;101492.16;4991346;28;20392;-83
2022/05/13 06:38:36;;;;;;;12.35;7.57;;;;;;;21.38;44.48;101500.53;4974811;28;20083;-84
2022/05/13 06:41:02;;;;;;;10.70;8.35;;;;;;;21.31;44.86;101495.88;4956828;28;20045;-84
2022/05/13 06:43:27;;;;;;;14.07;7.97;;;;;;;21.47;45.51;101499.78;4978581;28;20143;-84
2022/05/13 06:45:53;;;;;;;12.13;7.95;;;;;;;21.66;45.01;101498.28;5006979;28;20084;-85
2022/05/13 06:48:18;;;;;;;13.25;7.80;;;;;;;21.69;44.26;101495.41;4989779;28;20065;-82
2022/05/13 06:50:46;;;;;;;9.98;7.80;;;;;;;21.76;44.68;101496.56;5009904;28;20033;-84
2022/05/13 06:53:12;;;;;;;12.40;8.23;;;;;;;21.68;44.39;101477.94;4992535;28;20096;-83
2022/05/13 06:55:39;;;;;;;13.77;8.05;;;;;;;21.75;44.45;101481.75;4998334;28;20029;-83
2022/05/13 06:58:05;;;;;;;11.88;8.18;;;;;;;21.79;44.23;101485.78;5001162;28;20634;-92
2022/05/13 07:00:31;;;;;;;13.63;8.23;;;;;;;21.88;44.36;101476.28;4983817;28;20038;-84
2022/05/13 07:02:56;;;;;;;15.27;8.73;;;;;;;22.19;44.14;101474.56;5004271;28;20075;-88
2022/05/13 07:05:22;;;;;;;14.35;8.68;;;;;;;22.10;43.73;101476.19;5020794;28;20026;-86
2022/05/13 07:07:48;;;;;;;11.77;8.60;;;;;;;22.35;43.84;101484.66;4973357;28;20598;-85
2022/05/13 07:10:13;;;;;;;14.48;9.52;;;;;;;22.37;43.55;101464.28;5007296;28;20117;-87
2022/05/13 07:12:39;;;;;;;26.08;16.90;;;;;;;22.52;42.77;101477.00;5004662;28;20025;-86
2022/05/13 07:15:07;;;;;;;14.45;10.52;;;;;;;22.74;42.96;101483.03;4987434;28;20481;-84
2022/05/13 07:17:33;;;;;;;12.30;9.20;;;;;;;22.76;43.14;101481.09;4970399;28;20033;-87
2022/05/13 07:19:58;;;;;;;13.15;9.27;;;;;;;22.88;43.38;101478.25;4987910;28;20419;-85
2022/05/13 07:22:24;;;;;;;15.25;9.45;;;;;;;23.02;42.62;101484.16;5003884;28;20515;-87
2022/05/13 07:24:51;;;;;;;15.68;9.35;;;;;;;23.22;42.90;101479.75;5004000;28;20041;-91
2022/05/13 07:27:16;;;;;;;13.02;8.95;;;;;;;23.37;42.19;101478.34;5004510;28;20026;-81
2022/05/13 07:29:42;;;;;;;16.80;9.20;;;;;;;23.43;41.85;101467.25;4997233;28;20124;-84
2022/05/13 07:32:08;;;;;;;18.90;8.65;;;;;;;23.59;41.70;101464.91;4980264;28;20026;-82
2022/05/13 07:34:33;;;;;;;14.65;8.73;;;;;;;23.79;41.76;101478.13;5003301;28;20510;-84
2022/05/13 07:36:59;;;;;;;13.13;9.40;;;;;;;23.94;41.19;101472.28;5004172;28;20045;-86
2022/05/13 07:42:09;;;;;;;14.02;9.07;;;;;;;24.33;41.13;101474.03;5007838;28;20426;-90
2022/05/13 07:44:35;;;;;;;12.80;8.90;;;;;;;24.44;40.28;101468.56;5011961;28;20037;-89
2022/05/13 07:47:02;;;;;;;13.75;8.90;;;;;;;24.60;40.38;101458.22;4984298;28;20114;-85
2022/05/13 07:49:27;;;;;;;12.75;8.82;;;;;;;24.72;39.63;101451.75;4999315;28;20404;-86
2022/05/13 07:51:53;;;;;;;14.45;8.38;;;;;;;24.83;38.84;101435.66;4986668;28;20096;-82
2022/05/13 07:54:18;;;;;;;13.32;8.23;;;;;;;24.98;38.48;101459.00;5001602;28;20052;-86
2022/05/13 07:56:45;;;;;;;12.85;8.60;;;;;;;25.01;38.97;101443.63;4987596;28;20042;-86
2022/05/13 07:59:11;;;;;;;13.43;8.55;;;;;;;25.34;38.11;101447.47;4986244;28;20044;-87
2022/05/13 08:01:36;;;;;;;9.18;7.85;;;;;;;25.41;38.03;101453.84;5021147;28;20113;-85
2022/05/13 08:04:02;;;;;;;12.07;9.10;;;;;;;25.61;37.75;101445.72;5010880;28;20053;-93
2022/05/13 08:06:28;;;;;;;12.32;8.55;;;;;;;25.82;37.58;101448.06;5030680;28;20029;-92
2022/05/13 08:08:56;;;;;;;12.85;8.60;;;;;;;25.94;37.08;101446.84;5003909;28;20050;-89
2022/05/13 08:11:22;;;;;;;14.85;8.38;;;;;;;25.97;36.42;101435.94;5004359;28;20037;-84
2022/05/13 08:13:48;;;;;;;12.40;8.07;;;;;;;25.99;36.00;101432.13;4997362;28;20064;-82
2022/05/13 08:16:15;;;;;;;10.15;8.15;;;;;;;26.17;36.17;101437.38;5005832;28;20037;-93
2022/05/13 08:18:41;;;;;;;9.40;8.10;;;;;;;26.34;35.59;101445.41;5006628;28;20068;-85
2022/05/13 08:21:07;;;;;;;12.95;8.02;;;;;;;26.58;35.46;101443.75;4986790;28;20125;-84
2022/05/13 08:23:32;;;;;;;12.77;8.00;;;;;;;26.59;35.11;101421.53;5019906;28;20030;-85
2022/05/13 08:25:58;;;;;;;10.18;8.32;;;;;;;26.84;34.96;101441.03;5004640;28;20037;-83
2022/05/13 08:28:24;;;;;;;11.55;8.13;;;;;;;26.92;34.60;101437.56;4987946;28;20026;-87
2022/05/13 08:30:49;;;;;;;9.52;7.55;;;;;;;27.05;34.69;101435.31;5000033;28;20026;-84
2022/05/13 08:33:15;;;;;;;9.57;6.82;;;;;;;27.33;33.76;101427.84;4996654;28;20418;-87
2022/05/13 08:35:44;;;;;;;8.85;6.78;;;;;;;27.52;33.48;101428.53;5003179;28;20455;-84
2022/05/13 08:38:10;;;;;;;17.35;10.90;;;;;;;27.67;32.96;101430.41;4997117;28;20502;-83
2022/05/13 08:40:49;;;;;;;10.63;7.47;;;;;;;27.84;34.46;101419.75;4987710;28;20053;-84
2022/05/13 08:43:19;;;;;;;11.20;7.65;;;;;;;27.94;33.24;101420.41;5023265;28;20038;-84
2022/05/13 08:45:50;;;;;;;12.38;8.13;;;;;;;28.03;32.84;101424.72;5007860;28;20034;-83
2022/05/13 08:48:18;;;;;;;11.82;8.20;;;;;;;28.21;32.58;101417.31;4990581;28;20033;-84
2022/05/13 08:51:02;;;;;;;10.30;7.82;;;;;;;28.34;33.31;101418.66;5002776;28;20034;-83
2022/05/13 08:53:28;;;;;;;10.98;7.65;;;;;;;28.52;33.13;101421.91;5019603;28;20037;-83
2022/05/13 08:56:03;;;;;;;14.38;7.20;;;;;;;28.64;32.37;101401.06;5005834;28;20451;-84
2022/05/13 08:58:33;;;;;;;9.70;7.43;;;;;;;28.55;32.34;101392.28;5002116;28;20451;-84
2022/05/13 09:00:59;;;;;;;12.43;10.95;;;;;;;28.76;32.02;101408.47;5015778;28;20049;-83
2022/05/13 09:03:40;;;;;;;14.82;7.38;;;;;;;29.06;31.52;101413.97;4991313;28;20022;-82
2022/05/13 09:06:12;;;;;;;8.43;6.20;;;;;;;29.13;29.45;101407.78;5006224;28;20033;-91
2022/05/13 09:08:38;;;;;;;6.10;5.55;;;;;;;29.12;28.65;101398.13;5025464;28;20033;-86
2022/05/13 09:11:30;;;;;;;10.73;7.65;;;;;;;29.20;30.30;101405.22;5007875;28;20030;-84
2022/05/13 09:14:17;;;;;;;9.27;6.30;;;;;;;29.22;30.22;101408.53;4991981;28;20031;-82
2022/05/13 09:16:59;;;;;;;8.68;7.43;;;;;;;29.35;30.58;101403.44;5010430;28;20044;-87
2022/05/13 09:19:30;;;;;;;10.60;6.93;;;;;;;29.24;30.93;101403.88;5004224;28;20045;-86
2022/05/13 09:21:56;;;;;;;7.40;6.60;;;;;;;29.18;30.08;101383.25;5010528;28;20639;-82
2022/05/13 09:24:21;;;;;;;7.75;6.05;;;;;;;29.41;28.90;101362.75;5012721;28;20045;-87
2022/05/13 09:26:46;;;;;;;7.90;6.30;;;;;;;29.80;28.81;101382.25;5012029;28;20399;-89
2022/05/13 09:29:14;;;;;;;7.63;5.88;;;;;;;29.79;28.30;101376.06;5007957;28;20084;-89
2022/05/13 09:32:01;;;;;;;8.65;6.13;;;;;;;29.96;28.33;101377.53;4990624;28;20030;-86
2022/05/13 09:34:26;;;;;;;19.95;7.43;;;;;;;30.13;30.99;101380.06;5007437;28;20026;-90
2022/05/13 09:36:52;;;;;;;12.93;7.47;;;;;;;30.21;27.91;101358.63;5000013;28;20652;-85
2022/05/13 09:39:21;;;;;;;10.55;6.13;;;;;;;30.46;27.90;101377.81;4957755;28;20638;-85
2022/05/13 09:41:48;;;;;;;16.38;6.22;;;;;;;30.65;28.05;101361.22;4993428;28;20046;-84
2022/05/13 09:44:23;;;;;;;20.27;7.00;;;;;;;30.81;27.63;101371.66;5005600;28;20025;-82
2022/05/13 09:47:10;;;;;;;9.00;5.88;;;;;;;30.84;26.33;101365.09;4995756;28;20030;-82
2022/05/13 09:49:40;;;;;;;6.20;5.60;;;;;;;30.81;26.61;101344.94;4992583;28;20022;-86
2022/05/13 09:52:36;;;;;;;7.53;6.20;;;;;;;30.80;26.31;101359.34;4992794;28;20038;-84
2022/05/13 09:55:14;;;;;;;5.75;5.15;;;;;;;30.89;26.35;101343.19;4996778;28;20044;-84
2022/05/13 09:57:40;;;;;;;9.68;6.13;;;;;;;31.10;27.17;101335.97;5011125;28;20034;-84
2022/05/13 10:00:16;;;;;;;7.88;5.78;;;;;;;31.28;25.83;101340.06;5010267;28;20034;-82
2022/05/13 10:02:44;;;;;;;8.95;5.60;;;;;;;31.48;25.22;101325.00;5010396;28;20022;-84
2022/05/13 10:05:11;;;;;;;10.65;5.65;;;;;;;31.57;25.63;101326.50;4990748;28;20030;-83
2022/05/13 10:07:45;;;;;;;7.47;5.70;;;;;;;31.49;24.78;101318.63;4991161;28;20026;-87
2022/05/13 10:15:45;;;;;;;6.32;5.13;;;;;;;32.16;24.04;101312.63;4993641;28;20041;-84
2022/05/13 10:18:19;;;;;;;5.82;5.05;;;;;;;32.18;22.97;101313.25;4989428;28;20026;-84
2022/05/13 10:20:44;;;;;;;10.80;5.38;;;;;;;32.03;23.65;101290.31;5006681;28;20037;-83
2022/05/13 10:23:18;;;;;;;10.85;6.00;;;;;;;32.23;23.78;101300.06;4993875;28;20029;-89
2022/05/13 10:25:48;;;;;;;6.72;5.30;;;;;;;32.25;22.52;101298.03;4989675;28;20029;-86
2022/05/13 10:28:15;;;;;;;5.47;4.97;;;;;;;32.35;22.88;101286.13;4991413;28;20034;-90
2022/05/13 10:30:49;;;;;;;7.85;5.07;;;;;;;32.37;22.68;101270.72;4970387;28;20079;-85
2022/05/13 10:33:42;;;;;;;10.80;6.65;;;;;;;32.47;22.36;101295.25;5008632;28;20513;-82
2022/05/13 10:36:14;;;;;;;7.10;5.30;;;;;;;32.42;22.29;101287.78;5010615;28;20026;-83
2022/05/13 10:38:41;;;;;;;7.35;4.97;;;;;;;32.38;22.41;101283.06;5010221;28;20128;-83
2022/05/13 10:41:21;;;;;;;8.63;4.80;;;;;;;32.37;22.17;101273.38;5010604;28;20560;-86
2022/05/13 10:43:54;;;;;;;9.30;5.57;;;;;;;32.51;22.77;101272.38;4993506;28;20033;-83
2022/05/13 10:46:26;;;;;;;6.40;5.00;;;;;;;32.63;22.37;101267.22;5009917;28;20038;-86
2022/05/13 10:48:52;;;;;;;;;;;;;;;32.79;22.28;101270.34;5011066;28;20461;-85
2022/05/13 10:51:29;;;;;;;6.55;4.95;;;;;;;32.87;21.69;101258.63;5021444;28;19913;-83
2022/05/13 10:54:00;;;;;;;7.25;5.40;;;;;;;33.08;22.62;101257.59;4976365;28;20066;-81
2022/05/13 10:56:42;;;;;;;8.27;5.30;;;;;;;33.12;21.63;101261.47;4995947;28;20057;-85
2022/05/13 10:59:27;;;;;;;5.65;5.05;;;;;;;32.98;22.02;101257.19;5009713;28;20025;-84
2022/05/13 11:02:09;;;;;;;9.95;5.50;;;;;;;33.06;22.30;101235.53;5010356;28;20112;-86
2022/05/13 11:04:59;;;;;;;8.20;5.05;;;;;;;33.24;21.72;101245.59;5009585;28;20038;-84
2022/05/13 11:07:54;;;;;;;7.88;5.25;;;;;;;33.35;22.35;101248.50;5009841;28;20033;-83
2022/05/13 11:10:41;;;;;;;6.68;4.57;;;;;;;33.29;21.57;101240.44;5009978;28;20038;-83
2022/05/13 11:13:28;;;;;;;5.47;4.57;;;;;;;33.16;21.03;101227.88;5010887;28;20028;-85
2022/05/13 11:15:58;;;;;;;7.78;6.45;;;;;;;33.20;21.10;101230.97;5011397;28;20037;-84
2022/05/13 11:19:07;;;;;;;9.95;8.98;;;;;;;33.31;20.82;101224.94;5010526;28;20035;-82
2022/05/13 11:21:41;;;;;;;8.48;5.15;;;;;;;33.55;20.79;101223.47;4979536;28;20668;-83
2022/05/13 11:27:37;;;;;;;6.70;4.85;;;;;;;33.31;20.19;101214.22;5011412;28;20481;-79
2022/05/13 11:30:07;;;;;;;5.80;4.60;;;;;;;33.07;20.31;101207.69;4994529;28;20033;-81
2022/05/13 11:32:41;;;;;;;5.07;4.57;;;;;;;32.98;20.61;101185.63;5009203;28;20514;-81
2022/05/13 11:35:23;;;;;;;7.60;4.32;;;;;;;33.24;20.21;101208.06;4992947;28;20103;-80
2022/05/13 11:37:48;;;;;;;6.57;4.70;;;;;;;33.40;20.08;101198.75;5009473;28;20026;-85
2022/05/13 11:40:20;;;;;;;6.70;4.50;;;;;;;33.32;20.13;101194.41;4992919;28;20470;-89
2022/05/13 11:45:49;;;;;;;7.60;4.45;;;;;;;33.22;19.69;101194.03;5001469;28;20049;-87
2022/05/13 11:48:35;;;;;;;5.95;4.82;;;;;;;33.22;20.60;101181.44;5025209;28;20033;-89
2022/05/13 11:51:05;;;;;;;6.93;4.20;;;;;;;33.42;19.99;101180.59;5009745;28;20036;-87
2022/05/13 11:53:49;;;;;;;6.68;4.63;;;;;;;33.70;19.44;101185.63;5010786;28;20101;-87
2022/05/13 11:56:30;;;;;;;5.65;4.90;;;;;;;33.74;19.79;101176.97;5011001;28;20084;-86